หน้าหลัก
METAR-TAF:

METAR-TAF

ท่าอากาศยาน :

Wasilla, อะแลสกา, สหรัฐอเมริกา

ละติจูด: 61-34-19N, ลองจิจูด: 149-32-26W, ความสูง: 106 ม.

การสังเกตสภาพอากาศปัจจุบัน

รายงานได้ทำขึ้นเมื่อ 56 นาทีที่แล้ว ณ เวลา 22:56 UTC
ลมสงบ
อุณหภูมิ 11°C
ความชื้น 58%
ความกดอากาศ 1005 hPa
ทัศนวิสัย: 16.1 กม.
มีเมฆเป็นส่วนมากเว้นเป็นระยะที่ความสูง 4000 ฟุต
มีเมฆมาก มืดครึ้มที่ความสูง 5500 ฟุต
ฝนตกเล็กน้อย

METAR: PAWS 242256Z AUTO 00000KT 10SM -RA BKN040 OVC055 11/03 A2968 RMK AO2 RAB50 SLP056 P0000 T01110028

เวลา: 15:52 (23:52 UTC)


TAF: หายไป

สังเกตการณ์สภาพอากาศและพยากรณ์อากาศของสนามบินมากกว่า 4000 แห่ง (รายงาน METAR และ TAF).

สถานีที่ดูได้จะแสดงไว้ด้วยจุดสีเหลืองและสีแดงบนแผนที่.

เลื่อนเมาส์ไปเหนือจุดเพื่อดูชื่อสถานี.

แล้วคลิกเพื่อดูสังเกตการณ์และการพยากรณ์สภาพอากาศ.

ในการเปลี่ยนแผนที่: คลิกที่ปุ่มสีเขียวที่มีกากบาทสีดำเพื่อซูมเข้า; ที่ปุ่มสีเขียวที่มีขีดเพื่อซูมออก; หรือที่ลูกศรสีเขียวเพื่อไปยังแผนที่ที่อยู่ติดกัน.


METAR-TAF: